Time;durP1;ratioP1;P1;durP2;ratioP2;P2;SDS_P1;SDS_P2;PMS_P1;PMS_P2;Temp;Humidity;BMP_temperature;BMP_pressure;BME280_temperature;BME280_humidity;BME280_pressure;Samples;Min_cycle;Max_cycle;Signal;HPM_P1;HPM_P2
2022/09/04 00:03:44;;;;;;;11.15;5.22;;;;;;;13.92;76.09;99643.06;8172315;29;20557;-88
2022/09/04 00:07:55;;;;;;;15.57;5.43;;;;;;;13.94;75.83;99645.47;8168337;29;20091;-84
2022/09/04 00:12:07;;;;;;;8.32;4.93;;;;;;;13.96;75.84;99645.94;8167919;29;20050;-85
2022/09/04 00:16:16;;;;;;;11.93;4.78;;;;;;;13.93;75.74;99641.97;8168426;29;20545;-86
2022/09/04 00:20:45;;;;;;;9.45;5.20;;;;;;;13.90;76.00;99642.63;8152482;29;20481;-86
2022/09/04 00:24:57;;;;;;;11.50;5.22;;;;;;;13.90;75.76;99642.63;8166080;29;20056;-87
2022/09/04 00:29:02;;;;;;;8.98;4.40;;;;;;;13.89;76.13;99646.44;8167661;29;20051;-84
2022/09/04 00:33:04;;;;;;;8.57;5.30;;;;;;;13.88;76.07;99644.03;8165538;29;20052;-85
2022/09/04 00:37:08;;;;;;;9.95;5.32;;;;;;;13.85;76.23;99629.16;8173909;29;20055;-87
2022/09/04 00:41:29;;;;;;;10.02;4.75;;;;;;;13.85;76.52;99650.88;8164452;29;20064;-85
2022/09/04 00:45:42;;;;;;;17.27;5.68;;;;;;;13.87;76.49;99648.66;8167470;29;20047;-86
2022/09/04 00:49:56;;;;;;;13.38;5.93;;;;;;;13.86;76.62;99649.78;8132774;29;20067;-86
2022/09/04 00:54:34;;;;;;;13.02;5.60;;;;;;;13.87;76.60;99648.66;8150510;29;20076;-86
2022/09/04 00:58:53;;;;;;;9.77;5.22;;;;;;;13.85;76.89;99667.16;8167554;29;20035;-87
2022/09/04 01:03:06;;;;;;;9.50;5.10;;;;;;;13.82;76.93;99673.25;8169585;29;20043;-85
2022/09/04 01:07:22;;;;;;;11.40;5.57;;;;;;;13.80;77.26;99680.91;8166395;29;20130;-86
2022/09/04 01:12:01;;;;;;;11.77;5.80;;;;;;;13.75;77.30;99683.75;8168731;29;20058;-87
2022/09/04 01:16:10;;;;;;;12.70;6.40;;;;;;;13.72;77.68;99684.41;8131095;29;20549;-84
2022/09/04 01:20:27;;;;;;;13.98;5.95;;;;;;;13.68;77.97;99694.28;8164111;29;20062;-86
2022/09/04 01:24:41;;;;;;;17.38;6.32;;;;;;;13.65;78.01;99700.34;8168131;29;20063;-86
2022/09/04 01:29:11;;;;;;;16.25;6.00;;;;;;;13.59;78.56;99690.72;8168223;29;20047;-84
2022/09/04 01:33:19;;;;;;;13.73;6.30;;;;;;;13.54;78.59;99683.53;8169411;29;20102;-85
2022/09/04 01:37:41;;;;;;;11.70;6.20;;;;;;;13.50;78.60;99687.19;8170003;29;20058;-83
2022/09/04 01:42:13;;;;;;;11.32;6.55;;;;;;;13.45;78.95;99684.63;8151525;29;20143;-85
2022/09/04 01:46:32;;;;;;;12.77;6.18;;;;;;;13.41;79.08;99683.66;8151405;29;20139;-85
2022/09/04 01:50:34;;;;;;;12.55;6.57;;;;;;;13.34;79.52;99677.88;8165369;29;20052;-85
2022/09/04 01:54:41;;;;;;;12.63;6.70;;;;;;;13.31;79.73;99683.94;8167017;29;20048;-85
2022/09/04 01:58:48;;;;;;;11.88;7.07;;;;;;;13.26;80.02;99686.78;8169848;29;20102;-86
2022/09/04 02:02:54;;;;;;;13.27;6.75;;;;;;;13.20;80.34;99679.88;8166462;29;20685;-86
2022/09/04 02:07:17;;;;;;;13.45;7.30;;;;;;;13.15;80.62;99685.44;8165399;29;20079;-85
2022/09/04 02:11:21;;;;;;;15.05;7.07;;;;;;;13.11;80.46;99686.06;8163595;29;20496;-84
2022/09/04 02:15:32;;;;;;;14.13;7.25;;;;;;;13.06;80.78;99683.44;8170182;29;20713;-85
2022/09/04 02:20:08;;;;;;;13.82;7.05;;;;;;;13.00;81.08;99679.28;8164111;29;20098;-85
2022/09/04 02:24:27;;;;;;;12.10;6.93;;;;;;;12.93;81.57;99678.91;8103815;29;20057;-84
2022/09/04 02:28:47;;;;;;;13.50;6.82;;;;;;;12.88;81.63;99676.34;8116415;29;20044;-85
2022/09/04 02:33:20;;;;;;;12.32;6.97;;;;;;;12.85;81.86;99666.09;8121609;29;20434;-85
2022/09/04 02:37:24;;;;;;;15.25;7.30;;;;;;;12.83;82.01;99662.91;8115212;29;20922;-86
2022/09/04 02:41:34;;;;;;;16.75;6.65;;;;;;;12.81;82.32;99670.53;8112547;29;20083;-83
2022/09/04 02:45:43;;;;;;;13.02;6.45;;;;;;;12.79;82.21;99672.78;8113077;29;20500;-86
2022/09/04 02:50:14;;;;;;;15.43;7.03;;;;;;;12.77;82.64;99664.16;8104681;29;20060;-86
2022/09/04 02:54:34;;;;;;;13.85;7.13;;;;;;;12.75;82.51;99671.78;8115646;29;20135;-84
2022/09/04 02:59:06;;;;;;;14.43;6.88;;;;;;;12.75;82.74;99665.56;8097669;29;20055;-86
2022/09/04 03:03:20;;;;;;;12.55;6.75;;;;;;;12.75;82.61;99649.28;8137506;29;20051;-86
2022/09/04 03:07:34;;;;;;;11.80;6.15;;;;;;;12.74;82.83;99653.94;8183392;29;20051;-84
2022/09/04 03:11:41;;;;;;;13.15;6.28;;;;;;;12.75;82.90;99650.09;8172774;29;20056;-84
2022/09/04 03:15:54;;;;;;;11.52;5.95;;;;;;;12.76;82.99;99650.91;8173838;29;20055;-85
2022/09/04 03:20:13;;;;;;;17.45;6.07;;;;;;;12.76;82.98;99650.91;8172788;29;20059;-84
2022/09/04 03:24:23;;;;;;;12.73;5.90;;;;;;;12.74;82.81;99653.94;8181021;29;20383;-85
2022/09/04 03:28:50;;;;;;;14.27;5.97;;;;;;;12.77;82.75;99653.31;8173518;29;20114;-84
2022/09/04 03:33:02;;;;;;;14.80;5.43;;;;;;;12.76;82.68;99657.13;8105457;29;20057;-87
2022/09/04 03:37:30;;;;;;;9.73;5.38;;;;;;;12.76;82.58;99648.19;8103231;29;20061;-86
2022/09/04 03:41:42;;;;;;;10.95;5.50;;;;;;;12.76;82.53;99656.31;8092056;29;20053;-86
2022/09/04 03:45:53;;;;;;;10.32;5.55;;;;;;;12.79;82.22;99661.13;8105777;29;20057;-85
2022/09/04 03:49:57;;;;;;;13.40;5.95;;;;;;;12.78;82.30;99660.34;8105266;29;20095;-85
2022/09/04 03:54:27;;;;;;;8.65;5.57;;;;;;;12.79;82.19;99659.22;8103841;29;20045;-84
2022/09/04 03:58:57;;;;;;;10.27;6.10;;;;;;;12.77;82.10;99664.16;8052109;29;20046;-86
2022/09/04 04:03:22;;;;;;;8.70;5.30;;;;;;;12.80;81.94;99663.50;8049739;29;20101;-85
2022/09/04 04:07:34;;;;;;;10.70;5.65;;;;;;;12.78;82.07;99664.94;8050484;29;20057;-83
2022/09/04 04:11:45;;;;;;;13.23;6.15;;;;;;;12.75;82.19;99655.50;8075611;29;20516;-85
2022/09/04 04:15:56;;;;;;;11.10;6.55;;;;;;;12.73;82.26;99668.59;8058253;29;20060;-87
2022/09/04 04:20:37;;;;;;;10.95;5.43;;;;;;;12.73;82.37;99676.72;8073991;29;20049;-88
2022/09/04 04:25:00;;;;;;;10.50;5.90;;;;;;;12.75;82.15;99681.81;8077314;29;20519;-85
2022/09/04 04:29:39;;;;;;;11.65;6.00;;;;;;;12.71;82.21;99684.34;8085808;29;20067;-85
2022/09/04 04:34:10;;;;;;;10.82;5.80;;;;;;;12.71;82.17;99681.63;8088327;29;20080;-83
2022/09/04 04:38:19;;;;;;;9.15;5.30;;;;;;;12.70;82.15;99685.44;8153255;29;20051;-84
2022/09/04 04:42:53;;;;;;;7.60;4.47;;;;;;;12.71;81.96;99687.06;8171467;29;20062;-85
2022/09/04 04:47:04;;;;;;;11.60;4.85;;;;;;;12.73;81.89;99684.84;8168579;29;20047;-85
2022/09/04 04:51:23;;;;;;;10.30;5.05;;;;;;;12.74;81.74;99691.88;8153435;29;20144;-85
2022/09/04 04:55:56;;;;;;;8.38;5.28;;;;;;;12.74;81.76;99700.00;8180349;29;20118;-84
2022/09/04 05:00:36;;;;;;;8.73;5.35;;;;;;;12.76;81.56;99700.50;8055815;29;20061;-84
2022/09/04 05:04:44;;;;;;;7.72;4.82;;;;;;;12.80;81.38;99712.31;8060566;29;20144;-85
2022/09/04 05:08:58;;;;;;;8.48;5.28;;;;;;;12.86;81.26;99708.38;8070990;29;20656;-87
2022/09/04 05:13:02;;;;;;;6.55;4.28;;;;;;;12.92;80.92;99714.47;8066026;29;20060;-85
2022/09/04 05:17:40;;;;;;;11.90;5.28;;;;;;;12.97;80.85;99723.28;8071613;29;20056;-84
2022/09/04 05:21:54;;;;;;;12.60;5.55;;;;;;;13.01;80.71;99726.16;8059029;29;20058;-85
2022/09/04 05:26:04;;;;;;;8.82;5.22;;;;;;;13.04;80.81;99717.41;8059138;29;20118;-84
2022/09/04 05:30:15;;;;;;;8.43;5.07;;;;;;;13.09;80.63;99726.22;8068126;29;20048;-86
2022/09/04 05:35:08;;;;;;;8.43;5.75;;;;;;;13.10;80.82;99738.69;8045802;29;20647;-84
2022/09/04 05:39:26;;;;;;;9.18;5.30;;;;;;;13.15;80.92;99734.25;8034904;29;20464;-86
2022/09/04 05:43:36;;;;;;;9.33;5.30;;;;;;;13.20;80.76;99732.22;8039803;29;20061;-84
2022/09/04 05:48:04;;;;;;;8.57;5.18;;;;;;;13.26;80.70;99741.03;8040250;29;20414;-87
2022/09/04 05:52:25;;;;;;;8.63;5.25;;;;;;;13.32;80.49;99739.78;8039651;29;20463;-85
2022/09/04 05:56:41;;;;;;;8.02;4.72;;;;;;;13.38;80.56;99749.38;8039386;29;20068;-88
2022/09/04 06:00:45;;;;;;;9.57;5.40;;;;;;;13.45;80.49;99760.59;8052040;29;20064;-85
2022/09/04 06:05:17;;;;;;;10.90;5.50;;;;;;;13.52;80.44;99774.53;8039705;29;20555;-86
2022/09/04 06:10:12;;;;;;;9.45;5.00;;;;;;;13.58;80.43;99776.00;8036491;29;20063;-84
2022/09/04 06:14:38;;;;;;;10.07;5.38;;;;;;;13.64;80.18;99774.72;8007449;29;20176;-83
2022/09/04 06:19:01;;;;;;;13.23;5.63;;;;;;;13.71;80.24;99775.09;8057874;29;20057;-85
2022/09/04 06:23:23;;;;;;;11.30;5.80;;;;;;;13.76;80.27;99788.50;8069335;29;20053;-83
2022/09/04 06:27:52;;;;;;;8.57;5.35;;;;;;;13.85;80.17;99786.63;8072192;29;20057;-86
2022/09/04 06:32:11;;;;;;;8.48;5.28;;;;;;;13.92;80.08;99775.31;8075135;29;20044;-86
2022/09/04 06:36:12;;;;;;;10.23;5.43;;;;;;;13.98;79.82;99778.69;8070515;29;20063;-87
2022/09/04 06:41:01;;;;;;;8.85;4.80;;;;;;;14.06;79.76;99791.53;8071347;29;20053;-85
2022/09/04 06:45:08;;;;;;;8.25;5.45;;;;;;;14.13;79.62;99786.41;8116631;29;20466;-86
2022/09/04 06:49:35;;;;;;;9.13;4.82;;;;;;;14.20;79.38;99797.63;8133311;29;20107;-84
2022/09/04 06:53:48;;;;;;;9.05;4.80;;;;;;;14.30;79.37;99803.56;8129031;29;20555;-85
2022/09/04 06:58:08;;;;;;;10.20;4.78;;;;;;;14.40;79.14;99797.06;8131959;29;20056;-87
2022/09/04 07:02:38;;;;;;;9.15;4.93;;;;;;;14.51;78.87;99803.78;8131208;29;20055;-85
2022/09/04 07:06:46;;;;;;;9.70;4.70;;;;;;;14.61;78.00;99806.19;8136210;29;20060;-85
2022/09/04 07:11:11;;;;;;;7.72;4.32;;;;;;;14.70;77.83;99812.44;8135250;29;20144;-86
2022/09/04 07:15:19;;;;;;;8.15;4.22;;;;;;;14.82;77.52;99819.16;8130174;29;20060;-87
2022/09/04 07:19:34;;;;;;;7.82;4.15;;;;;;;14.94;77.25;99811.19;8144200;29;20052;-84
2022/09/04 07:24:02;;;;;;;5.88;4.03;;;;;;;15.07;77.04;99815.63;8159662;29;20052;-83
2022/09/04 07:28:26;;;;;;;7.60;4.38;;;;;;;15.20;76.68;99820.13;8174384;29;20051;-85
2022/09/04 07:32:37;;;;;;;6.97;3.72;;;;;;;15.27;76.67;99825.91;8174821;29;20055;-83
2022/09/04 07:36:56;;;;;;;6.32;4.20;;;;;;;15.36;76.43;99818.50;8170768;29;20035;-83
2022/09/04 07:41:46;;;;;;;6.65;3.95;;;;;;;15.49;76.60;99822.94;8179029;29;20387;-84
2022/09/04 07:45:57;;;;;;;6.03;3.58;;;;;;;15.56;75.91;99826.00;8041518;29;20148;-87
2022/09/04 07:50:07;;;;;;;5.60;3.25;;;;;;;15.61;75.69;99822.31;8026620;29;20472;-83
2022/09/04 07:54:19;;;;;;;5.07;3.40;;;;;;;15.70;75.59;99812.22;8042228;29;20432;-84
2022/09/04 07:58:30;;;;;;;7.20;3.30;;;;;;;15.83;75.21;99810.41;8027793;29;20045;-84
2022/09/04 08:02:50;;;;;;;4.38;2.83;;;;;;;15.91;74.54;99812.31;8042149;29;20080;-84
2022/09/04 08:06:59;;;;;;;4.40;2.90;;;;;;;15.97;73.63;99827.31;8037618;29;20453;-82
2022/09/04 08:11:18;;;;;;;4.32;2.65;;;;;;;16.11;73.36;99822.47;8033321;29;20065;-82
2022/09/04 08:15:40;;;;;;;3.47;2.45;;;;;;;16.23;72.12;99841.63;8038302;29;20069;-84
2022/09/04 08:19:56;;;;;;;4.03;2.90;;;;;;;16.32;71.98;99849.78;8042436;29;20069;-86
2022/09/04 08:24:15;;;;;;;5.15;3.13;;;;;;;16.45;71.52;99854.19;8172615;29;20056;-84
2022/09/04 08:28:32;;;;;;;3.80;2.78;;;;;;;16.61;71.81;99857.16;8171379;29;20040;-84
2022/09/04 08:32:57;;;;;;;6.22;2.60;;;;;;;16.82;71.75;99868.91;8154337;29;21823;-86
2022/09/04 08:37:16;;;;;;;4.13;2.70;;;;;;;16.94;70.96;99865.47;8158360;29;20454;-84
2022/09/04 08:41:35;;;;;;;;;;;;;;;17.06;70.97;99869.06;8183587;29;20060;-84
2022/09/04 08:46:03;;;;;;;5.35;3.85;;;;;;;17.18;70.42;99877.28;8171385;29;19923;-85
2022/09/04 08:50:33;;;;;;;13.75;6.22;;;;;;;17.28;70.28;99887.84;8170021;29;20142;-86
2022/09/04 08:54:37;;;;;;;4.60;2.90;;;;;;;17.30;69.89;99874.63;8170077;29;20054;-85
2022/09/04 08:58:41;;;;;;;4.40;2.80;;;;;;;17.31;70.23;99881.69;8169902;29;20126;-83
2022/09/04 09:02:58;;;;;;;4.03;2.88;;;;;;;17.34;69.84;99884.91;8177150;29;20074;-82
2022/09/04 09:07:28;;;;;;;5.50;2.70;;;;;;;17.29;70.05;99894.88;8173493;29;20103;-86
2022/09/04 09:11:55;;;;;;;6.38;3.05;;;;;;;17.33;70.00;99888.75;8157842;29;20052;-84
2022/09/04 09:16:33;;;;;;;3.70;2.88;;;;;;;17.40;70.06;99895.25;8103238;29;20053;-86
2022/09/04 09:20:54;;;;;;;4.45;3.05;;;;;;;17.52;69.57;99891.78;8098407;29;20052;-87
2022/09/04 09:25:08;;;;;;;3.65;2.70;;;;;;;17.74;69.11;99899.63;8105341;29;20092;-81
2022/09/04 09:29:34;;;;;;;3.30;2.55;;;;;;;17.95;68.76;99892.19;8105475;29;20040;-85
2022/09/04 09:33:46;;;;;;;2.88;2.38;;;;;;;18.21;68.06;99896.56;8112958;29;20057;-88
2022/09/04 09:38:29;;;;;;;3.38;2.50;;;;;;;18.42;67.13;99894.50;8100001;29;20586;-87
2022/09/04 09:42:42;;;;;;;3.67;2.58;;;;;;;18.67;67.15;99901.59;8089418;29;20151;-83
2022/09/04 09:46:53;;;;;;;7.85;2.95;;;;;;;18.88;66.37;99902.25;8101957;29;20064;-89
2022/09/04 09:50:53;;;;;;;4.22;2.65;;;;;;;18.97;65.82;99902.94;8118729;29;20051;-85
2022/09/04 09:55:09;;;;;;;6.90;2.75;;;;;;;19.13;65.51;99904.97;8168187;29;20481;-85
2022/09/04 09:59:35;;;;;;;3.50;2.63;;;;;;;19.14;64.41;99907.34;8156620;29;20060;-85
2022/09/04 10:04:05;;;;;;;2.50;2.15;;;;;;;19.24;64.47;99911.56;8168683;29;20044;-84
2022/09/04 10:08:15;;;;;;;2.30;2.05;;;;;;;19.37;64.04;99921.31;8156289;29;20143;-83
2022/09/04 10:12:33;;;;;;;3.80;2.45;;;;;;;19.49;63.41;99907.63;8168004;29;20052;-86
2022/09/04 10:17:07;;;;;;;4.10;2.58;;;;;;;19.74;62.87;99911.84;8167190;29;20055;-85
2022/09/04 10:21:19;;;;;;;3.38;2.33;;;;;;;19.92;62.24;99909.59;8168447;29;20096;-84
2022/09/04 10:26:05;;;;;;;3.92;2.20;;;;;;;19.91;61.97;99901.72;8182811;29;20068;-85
2022/09/04 10:30:10;;;;;;;3.22;2.20;;;;;;;20.02;62.15;99902.78;8165929;29;20046;-87
2022/09/04 10:34:23;;;;;;;3.28;2.15;;;;;;;20.14;61.66;99905.47;8164018;29;20061;-86
2022/09/04 10:44:00;;;;;;;5.53;2.40;;;;;;;20.20;61.38;99898.53;8102027;29;20052;-85
2022/09/04 10:48:35;;;;;;;3.33;2.50;;;;;;;20.27;61.64;99893.25;8075998;29;20059;-85
2022/09/04 10:53:00;;;;;;;4.07;2.75;;;;;;;20.26;60.68;99897.13;8085384;29;20076;-85
2022/09/04 10:57:22;;;;;;;4.22;2.20;;;;;;;20.32;60.89;99901.22;8107295;29;20052;-86
2022/09/04 11:01:58;;;;;;;3.20;2.30;;;;;;;20.30;60.40;99903.53;8106990;29;20057;-84
2022/09/04 11:06:09;;;;;;;3.88;2.28;;;;;;;20.49;60.44;99905.56;8118707;29;20533;-85
2022/09/04 11:10:18;;;;;;;9.15;2.58;;;;;;;20.69;60.44;99909.16;8138120;29;20059;-84
2022/09/04 11:14:31;;;;;;;5.63;2.75;;;;;;;20.74;60.18;99895.16;8137877;29;20510;-85
2022/09/04 11:18:44;;;;;;;4.53;2.40;;;;;;;20.90;59.94;99904.16;8138903;29;20063;-86
2022/09/04 11:23:13;;;;;;;3.63;2.53;;;;;;;21.00;59.41;99892.63;8159565;29;20059;-82
2022/09/04 11:27:44;;;;;;;3.92;2.75;;;;;;;21.15;59.29;99900.03;8172901;29;20052;-84
2022/09/04 11:32:01;;;;;;;3.88;2.20;;;;;;;20.96;58.04;99891.75;8171946;29;20052;-84
2022/09/04 11:36:10;;;;;;;;;;;;;;;20.98;58.31;99894.94;8170876;29;20163;-86
2022/09/04 11:40:31;;;;;;;4.28;2.50;;;;;;;21.16;58.50;99890.66;8171823;29;19923;-85
2022/09/04 11:45:09;;;;;;;13.18;6.03;;;;;;;21.18;57.89;99888.34;8170691;29;20059;-84
2022/09/04 11:49:12;;;;;;;5.05;3.00;;;;;;;21.35;58.23;99893.44;8181436;29;20051;-85
2022/09/04 11:53:31;;;;;;;2.85;2.35;;;;;;;21.62;57.84;99890.81;8169821;29;20103;-86
2022/09/04 11:58:08;;;;;;;4.55;2.22;;;;;;;21.73;58.35;99883.56;8174202;29;20044;-85
2022/09/04 12:02:14;;;;;;;8.85;2.53;;;;;;;21.92;58.18;99889.03;8157301;29;20576;-86
2022/09/04 12:06:19;;;;;;;4.72;2.40;;;;;;;21.95;56.85;99893.81;8148787;29;20436;-86
2022/09/04 12:10:29;;;;;;;3.58;2.20;;;;;;;21.97;56.65;99891.50;8134063;29;20043;-84
2022/09/04 12:15:14;;;;;;;4.38;2.35;;;;;;;22.15;56.41;99889.88;8156613;29;20168;-85
2022/09/04 12:19:38;;;;;;;2.72;2.20;;;;;;;22.24;56.05;99890.41;8136213;29;20131;-88
2022/09/04 12:23:57;;;;;;;3.63;2.25;;;;;;;22.20;56.27;99878.56;8088178;29;20068;-85
2022/09/04 12:28:25;;;;;;;3.78;2.42;;;;;;;22.07;55.82;99879.09;8070674;29;20116;-84
2022/09/04 12:32:29;;;;;;;6.30;2.15;;;;;;;22.17;56.38;99890.28;8073157;29;20061;-85
2022/09/04 12:36:58;;;;;;;3.65;2.15;;;;;;;22.38;55.15;99883.53;8073543;29;20049;-85
2022/09/04 12:41:10;;;;;;;3.17;2.35;;;;;;;22.44;54.00;99871.06;8041448;29;20259;-84
2022/09/04 12:45:23;;;;;;;5.38;2.30;;;;;;;22.54;53.17;99870.41;8056944;29;20403;-85
2022/09/04 12:49:49;;;;;;;5.32;2.78;;;;;;;22.81;52.95;99885.00;8071661;29;20068;-88
2022/09/04 12:54:02;;;;;;;3.40;2.35;;;;;;;22.61;52.96;99887.06;8100202;29;20052;-86
2022/09/04 12:58:32;;;;;;;4.20;2.10;;;;;;;22.30;53.46;99888.94;8138228;29;20044;-84
2022/09/04 13:02:52;;;;;;;3.47;2.40;;;;;;;22.19;54.13;99898.97;8165031;29;20055;-86
2022/09/04 13:07:14;;;;;;;5.35;2.50;;;;;;;21.97;55.18;99891.50;8170483;29;20138;-85
2022/09/04 13:11:35;;;;;;;2.58;2.20;;;;;;;21.96;56.36;99889.91;8168932;29;20054;-85
2022/09/04 13:15:51;;;;;;;3.65;1.95;;;;;;;22.19;55.57;99893.47;8162233;29;20090;-83
2022/09/04 13:20:08;;;;;;;3.50;1.95;;;;;;;22.31;54.55;99900.75;8164267;29;20055;-86
2022/09/04 13:24:26;;;;;;;3.45;2.30;;;;;;;23.34;51.77;99902.25;8117894;29;20055;-86
2022/09/04 13:28:57;;;;;;;2.97;2.22;;;;;;;24.20;48.68;99910.38;8169714;29;20051;-85
2022/09/04 13:33:04;;;;;;;3.67;2.03;;;;;;;25.32;46.28;99911.56;8171835;29;20394;-86
2022/09/04 13:37:34;;;;;;;2.28;1.63;;;;;;;26.21;44.98;99910.66;8151321;29;20063;-85
2022/09/04 13:41:47;;;;;;;4.78;1.65;;;;;;;25.70;46.06;99915.69;8100385;29;20404;-85
2022/09/04 13:45:54;;;;;;;3.58;1.90;;;;;;;24.35;48.52;99923.13;8094947;29;20061;-85
2022/09/04 13:50:09;;;;;;;2.75;2.05;;;;;;;24.08;49.71;99924.41;8097690;29;20072;-87
2022/09/04 13:54:29;;;;;;;6.55;1.80;;;;;;;24.90;47.93;99925.94;8100859;29;20060;-86
2022/09/04 13:58:37;;;;;;;3.45;2.08;;;;;;;24.32;48.53;99929.41;8101616;29;20101;-85
2022/09/04 14:02:40;;;;;;;5.32;2.08;;;;;;;23.83;50.65;99924.94;8102891;29;20061;-85
2022/09/04 14:06:43;;;;;;;3.88;1.80;;;;;;;23.27;51.50;99919.50;8093302;29;20136;-86
2022/09/04 14:11:03;;;;;;;3.60;1.83;;;;;;;23.12;52.61;99924.03;8099602;29;20048;-85
2022/09/04 14:15:12;;;;;;;3.88;2.10;;;;;;;23.11;52.92;99927.94;8102442;29;20100;-85
2022/09/04 14:19:31;;;;;;;4.13;1.67;;;;;;;23.08;53.42;99934.22;8040130;29;20086;-85
2022/09/04 14:23:38;;;;;;;;;;;;;;;23.26;53.22;99922.66;8047605;29;20060;-85
2022/09/04 14:28:02;;;;;;;3.22;1.98;;;;;;;23.21;53.28;99937.56;8043685;29;20374;-85
2022/09/04 14:32:21;;;;;;;2.85;1.73;;;;;;;23.17;53.22;99931.97;8056438;29;20056;-89
2022/09/04 14:36:22;;;;;;;3.47;1.88;;;;;;;23.07;51.88;99927.09;8056779;29;20052;-87
2022/09/04 14:40:33;;;;;;;6.18;2.50;;;;;;;22.72;52.72;99926.59;8050734;29;20141;-87
2022/09/04 14:44:46;;;;;;;9.05;4.45;;;;;;;22.50;54.00;99941.16;8044343;29;20058;-86
2022/09/04 14:48:59;;;;;;;4.43;2.63;;;;;;;22.31;54.36;99937.28;8077914;29;20170;-86
2022/09/04 14:53:03;;;;;;;3.63;1.80;;;;;;;22.25;54.70;99924.22;8130477;29;20076;-86
2022/09/04 14:57:32;;;;;;;2.08;1.77;;;;;;;22.22;54.49;99925.72;8142857;29;20036;-87
2022/09/04 15:01:37;;;;;;;4.05;2.72;;;;;;;22.09;54.28;99931.78;8155468;29;20470;-87
2022/09/04 15:05:50;;;;;;;6.40;2.33;;;;;;;22.04;54.55;99935.63;8150101;29;20084;-87
2022/09/04 15:09:52;;;;;;;4.30;2.25;;;;;;;21.84;55.16;99942.28;8158320;29;20048;-87
2022/09/04 15:13:58;;;;;;;6.18;2.30;;;;;;;21.77;55.38;99944.91;8173753;29;20395;-87
2022/09/04 15:18:22;;;;;;;3.08;2.28;;;;;;;21.71;56.02;99946.34;8161550;29;20047;-86
2022/09/04 15:22:36;;;;;;;3.03;2.22;;;;;;;21.70;56.52;99936.50;8176380;29;20078;-87
2022/09/04 15:27:19;;;;;;;3.85;2.38;;;;;;;21.68;56.78;99944.34;8156627;29;20067;-86
2022/09/04 15:31:27;;;;;;;5.45;2.17;;;;;;;21.63;56.05;99939.91;8078087;29;20165;-87
2022/09/04 15:35:30;;;;;;;;;;;;;;;21.61;56.87;99938.69;8079553;29;20455;-87
2022/09/04 15:39:37;;;;;;;6.18;2.60;;;;;;;21.44;56.88;99939.91;8094659;29;20324;-87
2022/09/04 15:43:42;;;;;;;4.38;2.33;;;;;;;21.26;57.41;99945.03;8058820;29;20557;-85
2022/09/04 15:47:57;;;;;;;3.17;2.40;;;;;;;21.09;57.64;99945.41;8074605;29;20055;-86
2022/09/04 15:52:35;;;;;;;3.05;2.03;;;;;;;20.94;58.19;99946.22;8059222;29;20045;-85
2022/09/04 15:56:44;;;;;;;4.22;2.53;;;;;;;20.83;58.48;99947.94;8074472;29;20561;-86
2022/09/04 16:01:14;;;;;;;5.50;2.55;;;;;;;20.78;58.72;99956.47;8074248;29;20060;-86
2022/09/04 16:05:22;;;;;;;5.30;2.22;;;;;;;20.73;58.79;99954.75;8073432;29;20227;-85
2022/09/04 16:09:33;;;;;;;3.92;2.30;;;;;;;20.63;59.28;99961.59;8150687;29;20059;-86
2022/09/04 16:14:01;;;;;;;4.93;2.45;;;;;;;20.53;59.42;99964.88;8171015;29;20043;-84
2022/09/04 16:18:12;;;;;;;2.90;2.30;;;;;;;20.47;60.36;99963.53;8172218;29;20523;-86
2022/09/04 16:22:36;;;;;;;5.32;2.28;;;;;;;20.40;61.09;99970.81;8170633;29;20054;-85
2022/09/04 16:26:37;;;;;;;5.85;2.35;;;;;;;20.29;61.47;99973.25;8172025;29;20051;-86
2022/09/04 16:30:42;;;;;;;3.55;2.78;;;;;;;20.19;62.00;99979.25;8171739;29;20496;-85
2022/09/04 16:34:59;;;;;;;3.20;2.50;;;;;;;20.07;62.11;99971.06;8170617;29;20693;-86
2022/09/04 16:39:24;;;;;;;5.63;2.90;;;;;;;19.95;62.60;99976.59;8169543;29;20046;-86
2022/09/04 16:43:28;;;;;;;4.90;2.90;;;;;;;19.87;63.17;99980.31;8152991;29;20055;-86
2022/09/04 16:47:44;;;;;;;3.03;2.55;;;;;;;19.75;63.37;99981.97;8169175;29;20047;-87
2022/09/04 16:51:49;;;;;;;4.97;2.80;;;;;;;19.68;63.42;99987.22;8171125;29;20043;-86
2022/09/04 16:56:31;;;;;;;10.00;3.28;;;;;;;19.61;64.14;99986.25;8169081;29;20044;-86
2022/09/04 17:01:01;;;;;;;6.72;3.47;;;;;;;19.52;64.93;99994.56;8163587;29;20058;-85
2022/09/04 17:05:16;;;;;;;10.65;4.40;;;;;;;19.41;65.40;100001.66;8167272;29;20048;-85
2022/09/04 17:09:46;;;;;;;12.43;5.15;;;;;;;19.30;65.82;99992.31;8126663;29;20111;-85
2022/09/04 17:14:08;;;;;;;10.82;4.88;;;;;;;19.17;66.47;99993.47;8026437;29;20049;-85
2022/09/04 17:18:10;;;;;;;10.55;4.97;;;;;;;19.06;66.89;100003.31;8043407;29;20053;-85
2022/09/04 17:22:35;;;;;;;15.55;5.88;;;;;;;18.90;67.64;100006.72;8026275;29;20090;-87
2022/09/04 17:26:38;;;;;;;15.50;5.45;;;;;;;18.80;68.02;100001.72;8028201;29;20057;-85
2022/09/04 17:30:44;;;;;;;11.50;5.40;;;;;;;18.69;68.63;100005.22;8044048;29;20040;-87
2022/09/04 17:34:52;;;;;;;10.95;4.00;;;;;;;18.59;68.57;100017.44;8025635;29;20045;-85
2022/09/04 17:39:14;;;;;;;8.77;3.42;;;;;;;18.55;67.96;100016.50;8041185;29;20065;-86
2022/09/04 17:43:28;;;;;;;7.85;3.67;;;;;;;18.50;67.64;100019.44;8041447;29;20045;-85
2022/09/04 17:47:29;;;;;;;5.50;3.20;;;;;;;18.44;67.57;100023.53;8039309;29;20081;-85
2022/09/04 17:51:32;;;;;;;6.00;3.30;;;;;;;18.37;67.60;100036.94;8151890;29;20067;-85
2022/09/04 17:55:42;;;;;;;7.63;3.08;;;;;;;18.23;67.80;100041.91;8133612;29;20068;-83
2022/09/04 18:00:00;;;;;;;4.20;3.00;;;;;;;18.09;67.84;100031.25;8165367;29;20044;-86
2022/09/04 18:04:01;;;;;;;8.18;2.97;;;;;;;17.99;67.85;100043.41;8161957;29;20044;-86
2022/09/04 18:08:31;;;;;;;5.95;3.33;;;;;;;17.90;68.06;100056.34;8164189;29;20056;-87
2022/09/04 18:13:00;;;;;;;5.55;3.35;;;;;;;17.79;68.19;100055.16;8039156;29;20060;-84
2022/09/04 18:17:11;;;;;;;7.28;3.85;;;;;;;17.69;68.38;100055.56;8022870;29;20263;-85
2022/09/04 18:21:25;;;;;;;7.15;3.95;;;;;;;17.57;68.68;100060.91;8039526;29;20049;-87
2022/09/04 18:26:01;;;;;;;9.07;6.85;;;;;;;17.44;68.96;100067.44;8008282;29;20049;-86
2022/09/04 18:30:10;;;;;;;8.45;4.10;;;;;;;17.34;69.22;100073.28;8007304;29;20974;-87
2022/09/04 18:34:17;;;;;;;6.68;3.72;;;;;;;17.26;69.42;100081.19;7983335;29;20212;-88
2022/09/04 18:38:46;;;;;;;5.15;3.75;;;;;;;17.17;69.44;100072.25;7994688;29;20126;-88
2022/09/04 18:42:58;;;;;;;5.22;3.70;;;;;;;17.14;69.65;100083.81;7994558;29;20062;-88
2022/09/04 18:47:20;;;;;;;6.75;3.65;;;;;;;17.08;69.69;100090.56;8021735;29;20094;-85
2022/09/04 18:51:28;;;;;;;8.18;4.82;;;;;;;17.02;70.28;100097.38;8104303;29;20067;-88
2022/09/04 18:55:44;;;;;;;14.80;8.15;;;;;;;16.91;70.30;100104.31;8096935;29;20139;-86
2022/09/04 18:59:47;;;;;;;9.98;6.53;;;;;;;16.84;70.39;100101.25;8100681;29;20057;-87
2022/09/04 19:03:52;;;;;;;5.45;3.58;;;;;;;16.80;70.34;100100.31;8118846;29;20052;-85
2022/09/04 19:07:58;;;;;;;7.45;3.80;;;;;;;16.79;70.29;100109.63;8169343;29;20103;-87
2022/09/04 19:12:05;;;;;;;11.82;3.75;;;;;;;16.80;70.35;100116.69;8172057;29;20075;-86
2022/09/04 19:16:13;;;;;;;8.30;4.03;;;;;;;16.78;70.03;100118.94;8171999;29;20541;-87
2022/09/04 19:20:16;;;;;;;5.45;4.00;;;;;;;16.79;70.02;100110.44;8172508;29;20418;-86
2022/09/04 19:24:38;;;;;;;7.53;3.97;;;;;;;16.79;69.83;100115.09;8172262;29;20477;-87
2022/09/04 19:28:39;;;;;;;8.70;4.25;;;;;;;16.78;70.02;100118.94;8137148;29;20404;-85
2022/09/04 19:32:59;;;;;;;8.82;4.10;;;;;;;16.75;70.13;100125.03;8171645;29;20131;-86
2022/09/04 19:37:23;;;;;;;9.65;4.05;;;;;;;16.72;70.22;100125.69;8172293;29;20040;-86
2022/09/04 19:41:29;;;;;;;6.32;3.40;;;;;;;16.64;70.46;100124.59;8170645;29;20068;-86
2022/09/04 19:45:39;;;;;;;7.97;3.90;;;;;;;16.64;70.40;100129.25;8149613;29;20653;-85
2022/09/04 19:50:17;;;;;;;9.02;3.67;;;;;;;16.63;70.58;100133.09;8150838;29;20059;-85
2022/09/04 19:54:26;;;;;;;6.60;3.70;;;;;;;16.62;70.69;100131.47;8104305;29;20064;-86
2022/09/04 19:58:38;;;;;;;8.23;3.67;;;;;;;16.63;70.68;100133.09;8091426;29;20108;-88
2022/09/04 20:02:41;;;;;;;5.03;3.55;;;;;;;16.65;70.65;100139.03;8101696;29;20057;-85
2022/09/04 20:06:48;;;;;;;9.93;4.03;;;;;;;16.64;70.60;100134.69;8088869;29;20061;-82
2022/09/04 20:10:56;;;;;;;5.32;4.15;;;;;;;16.63;70.75;100138.53;8099625;29;20071;-85
2022/09/04 20:15:10;;;;;;;5.85;3.30;;;;;;;16.64;70.58;100140.16;8098508;29;20112;-86